F/V Oceanie — FVBW — position and weather

sailwx.info

Track history (hours):
 
Tides and Currents Weather Stations Pressure Air Temp Water Temp Dewpoint Dewpoint Depression Visibility Wind Speed Wind Dir Waves Ship Positions

F/V Oceanie

Last reported at 2016-Feb-06 02:33 UTC. Time now 2016-Feb-07 05:56 UTC.
Position N 47°44' W 003°22'.

Length 16 m.

Type: Fishing. MMSI: 228370000.

Date/timePositionNaut miles runAvg speedWind from/ knotsBaromVisibWave heightAir tempDewpointWater temp
2016-Feb-06 02:33N 47°44' W 003°22'0 0.0
2016-Feb-06 01:33N 47°44' W 003°22'5 5.4
2016-Feb-06 00:33N 47°38' W 003°23'7 6.9
2016-Feb-05 23:33N 47°34' W 003°30'4 3.7
2016-Feb-05 22:33N 47°30' W 003°30'4 4.1
2016-Feb-05 21:33N 47°26' W 003°28'4 4.2
2016-Feb-05 20:33N 47°22' W 003°28'4 4.2
2016-Feb-05 19:33N 47°19' W 003°24'30 2.9
2016-Feb-05 09:12N 46°50' W 003°13'1 1.6
2016-Feb-05 08:27N 46°48' W 003°13'8 1.1
2016-Feb-05 01:13N 46°41' W 003°10'33 1.7
2016-Feb-04 05:33N 47°13' W 003°23'9 8.7
2016-Feb-04 04:33N 47°21' W 003°23'9 9.0
2016-Feb-04 03:33N 47°30' W 003°22'9 9.0
2016-Feb-04 02:33N 47°39' W 003°22'4 4.3
2016-Feb-04 01:33N 47°44' W 003°22'7 7.0
2016-Feb-04 00:33N 47°37' W 003°23'9 8.8
2016-Feb-03 23:33N 47°28' W 003°23'4 3.5
2016-Feb-03 22:33N 47°24' W 003°23'3 3.1
2016-Feb-03 21:33N 47°22' W 003°21'1 0.7
2016-Feb-03 20:33N 47°22' W 003°21'1 1.0
2016-Feb-03 19:33N 47°23' W 003°20'3 3.5
2016-Feb-03 18:33N 47°24' W 003°24'3 3.3
2016-Feb-03 17:33N 47°25' W 003°29'4 4.2
2016-Feb-03 16:33N 47°29' W 003°31'4 4.2
2016-Feb-03 15:33N 47°33' W 003°32'4 3.6
2016-Feb-03 14:33N 47°36' W 003°35'3 3.2
2016-Feb-03 13:33N 47°34' W 003°32'4 3.5
2016-Feb-03 12:33N 47°31' W 003°30'3 2.8
2016-Feb-03 11:33N 47°28' W 003°29'2 2.2
2016-Feb-03 10:33N 47°29' W 003°32'3 3.4
2016-Feb-03 09:33N 47°26' W 003°30'3 2.8
2016-Feb-03 08:33N 47°23' W 003°30'2 1.7
2016-Feb-03 07:33N 47°24' W 003°28'4 4.3
2016-Feb-03 06:33N 47°27' W 003°32'4 4.2
2016-Feb-03 05:33N 47°31' W 003°32'4 4.4
2016-Feb-03 04:33N 47°35' W 003°28'8 8.0
2016-Feb-03 03:33N 47°42' W 003°22'2 2.2
2016-Feb-03 02:33N 47°44' W 003°22'6 6.5
2016-Feb-03 01:33N 47°37' W 003°22'8 8.2
2016-Feb-03 00:33N 47°29' W 003°23'8 8.3
2016-Feb-02 23:33N 47°21' W 003°24'9 8.5
2016-Feb-02 22:33N 47°12' W 003°25'11 0.6
2016-Feb-02 05:29N 47°13' W 003°40'3 3.7
2016-Feb-02 04:33N 47°16' W 003°40'4 3.5
2016-Feb-02 03:33N 47°19' W 003°37'5 4.7
2016-Feb-02 02:33N 47°21' W 003°30'7 7.4
2016-Feb-02 01:33N 47°25' W 003°21'3 3.1
2016-Feb-02 00:33N 47°22' W 003°19'2 1.9
2016-Feb-01 23:33N 47°23' W 003°20'1 1.0
2016-Feb-01 22:33N 47°23' W 003°19'2 2.0
2016-Feb-01 21:33N 47°23' W 003°22'2 2.5
2016-Feb-01 20:33N 47°21' W 003°19'1 1.2
2016-Feb-01 19:33N 47°22' W 003°20'1 1.3
2016-Feb-01 18:33N 47°23' W 003°21'3 2.8
2016-Feb-01 17:33N 47°25' W 003°25'2 2.4
2016-Feb-01 16:33N 47°23' W 003°28'1 1.5
2016-Feb-01 15:33N 47°23' W 003°30'2 2.1
2016-Feb-01 14:33N 47°24' W 003°27'3 3.0
2016-Feb-01 13:33N 47°24' W 003°23'0 0.2
2016-Feb-01 12:33N 47°25' W 003°22'3 3.2
2016-Feb-01 11:33N 47°24' W 003°18'2 1.5
2016-Feb-01 10:33N 47°25' W 003°20'5 4.8
2016-Feb-01 09:33N 47°30' W 003°23'8 8.4
2016-Feb-01 08:33N 47°38' W 003°22'6 5.7
2016-Feb-01 07:33N 47°44' W 003°22'0 0.0
2016-Feb-01 06:33N 47°44' W 003°22'3 2.8
2016-Feb-01 05:33N 47°41' W 003°22'9 8.7
2016-Feb-01 04:33N 47°32' W 003°23'9 8.6
2016-Feb-01 03:33N 47°24' W 003°21'4 3.5
2016-Feb-01 02:33N 47°20' W 003°19'3 3.3
2016-Feb-01 01:33N 47°24' W 003°20'1 0.7
2016-Feb-01 00:33N 47°23' W 003°20'1 0.8
2016-Jan-31 23:33N 47°22' W 003°19'2 2.2
2016-Jan-31 22:33N 47°24' W 003°21'2 2.1
2016-Jan-31 21:34N 47°22' W 003°20'1 1.4
2016-Jan-31 20:33N 47°24' W 003°21'1 1.2
2016-Jan-31 19:33N 47°22' W 003°21'4 3.8
2016-Jan-31 18:33N 47°26' W 003°23'8 8.1
2016-Jan-31 17:33N 47°34' W 003°22'8 8.5
2016-Jan-31 16:33N 47°42' W 003°22'1 0.0
2016-Jan-30 03:33N 47°44' W 003°22'0 0.0
2016-Jan-30 02:33N 47°44' W 003°22'0 0.1
2016-Jan-30 01:33N 47°44' W 003°22'0 0.0
2016-Jan-30 00:33N 47°44' W 003°22'0 0.1
2016-Jan-29 23:33N 47°44' W 003°22'0 0.1
2016-Jan-29 22:33N 47°44' W 003°22'6 6.1
2016-Jan-29 21:34N 47°38' W 003°22'8 7.8
2016-Jan-29 20:34N 47°30' W 003°23'7 6.9
2016-Jan-29 19:33N 47°23' W 003°24'1 1.4
2016-Jan-29 18:33N 47°24' W 003°22'3 2.8
2016-Jan-29 17:33N 47°25' W 003°26'2 1.9
2016-Jan-29 16:33N 47°23' W 003°28'1 1.4
2016-Jan-29 15:33N 47°23' W 003°30'4 3.8
2016-Jan-29 14:34N 47°20' W 003°26'3 3.4
2016-Jan-29 13:34N 47°17' W 003°27'3 2.7
2016-Jan-29 12:33N 47°18' W 003°31'0 0.1
2016-Jan-29 11:33N 47°17' W 003°31'2 1.6
2016-Jan-29 10:33N 47°17' W 003°29'1 0.5
2016-Jan-29 09:33N 47°17' W 003°29'0 0.5
2016-Jan-29 08:33N 47°17' W 003°29'1 1.5
2016-Jan-29 07:34N 47°18' W 003°31'2 2.2
2016-Jan-29 06:33N 47°16' W 003°28'4 4.2
2016-Jan-29 05:33N 47°20' W 003°27'8 8.1
2016-Jan-29 04:33N 47°28' W 003°24'8 8.1
2016-Jan-29 03:33N 47°36' W 003°23'8 7.7
2016-Jan-29 02:33N 47°44' W 003°22'4 3.6
2016-Jan-29 01:33N 47°40' W 003°22'9 8.9
2016-Jan-29 00:33N 47°31' W 003°23'6 6.0
2016-Jan-28 23:33N 47°25' W 003°23'3 3.5
2016-Jan-28 22:33N 47°22' W 003°21'4 3.7
2016-Jan-28 21:33N 47°19' W 003°19'2 1.9
2016-Jan-28 20:33N 47°21' W 003°18'2 1.6
2016-Jan-28 19:33N 47°22' W 003°19'7 6.6
2016-Jan-28 18:33N 47°19' W 003°27'3 3.3
2016-Jan-28 17:33N 47°17' W 003°31'2 2.2
2016-Jan-28 16:34N 47°17' W 003°28'2 2.0
2016-Jan-28 15:34N 47°18' W 003°30'0 0.2
2016-Jan-28 14:33N 47°18' W 003°30'1 1.0
2016-Jan-28 13:33N 47°18' W 003°28'1 0.7
2016-Jan-28 12:34N 47°18' W 003°29'2 1.7
2016-Jan-28 11:33N 47°16' W 003°29'4 4.3
2016-Jan-28 10:33N 47°20' W 003°27'3 3.4
2016-Jan-28 09:34N 47°23' W 003°27'2 2.4
2016-Jan-28 08:33N 47°21' W 003°28'3 3.0
2016-Jan-28 07:34N 47°24' W 003°30'4 3.9
2016-Jan-28 06:34N 47°25' W 003°25'3 2.8
2016-Jan-28 05:34N 47°27' W 003°22'2 1.8
2016-Jan-28 04:34N 47°25' W 003°21'2 1.7
2016-Jan-28 03:34N 47°27' W 003°22'5 4.9
2016-Jan-28 02:33N 47°32' W 003°22'8 8.1
2016-Jan-28 01:33N 47°40' W 003°22'  
Track history (hours):
 
Tides and Currents Weather Stations Pressure Air Temp Water Temp Dewpoint Dewpoint Depression Visibility Wind Speed Wind Dir Waves Ship Positions

F/V Oceanie

Last reported at 2016-Feb-06 02:33 UTC. Time now 2016-Feb-07 05:56 UTC.
Position N 47°44' W 003°22'.

Length 16 m.

Type: Fishing. MMSI: 228370000.

Date/timePositionNaut miles runAvg speedWind from/ knotsBaromVisibWave heightAir tempDewpointWater temp
2016-Feb-06 02:33N 47°44' W 003°22'0 0.0
2016-Feb-06 01:33N 47°44' W 003°22'5 5.4
2016-Feb-06 00:33N 47°38' W 003°23'7 6.9
2016-Feb-05 23:33N 47°34' W 003°30'4 3.7
2016-Feb-05 22:33N 47°30' W 003°30'4 4.1
2016-Feb-05 21:33N 47°26' W 003°28'4 4.2
2016-Feb-05 20:33N 47°22' W 003°28'4 4.2
2016-Feb-05 19:33N 47°19' W 003°24'30 2.9
2016-Feb-05 09:12N 46°50' W 003°13'1 1.6
2016-Feb-05 08:27N 46°48' W 003°13'8 1.1
2016-Feb-05 01:13N 46°41' W 003°10'33 1.7
2016-Feb-04 05:33N 47°13' W 003°23'9 8.7
2016-Feb-04 04:33N 47°21' W 003°23'9 9.0
2016-Feb-04 03:33N 47°30' W 003°22'9 9.0
2016-Feb-04 02:33N 47°39' W 003°22'4 4.3
2016-Feb-04 01:33N 47°44' W 003°22'7 7.0
2016-Feb-04 00:33N 47°37' W 003°23'9 8.8
2016-Feb-03 23:33N 47°28' W 003°23'4 3.5
2016-Feb-03 22:33N 47°24' W 003°23'3 3.1
2016-Feb-03 21:33N 47°22' W 003°21'1 0.7
2016-Feb-03 20:33N 47°22' W 003°21'1 1.0
2016-Feb-03 19:33N 47°23' W 003°20'3 3.5
2016-Feb-03 18:33N 47°24' W 003°24'3 3.3
2016-Feb-03 17:33N 47°25' W 003°29'4 4.2
2016-Feb-03 16:33N 47°29' W 003°31'4 4.2
2016-Feb-03 15:33N 47°33' W 003°32'4 3.6
2016-Feb-03 14:33N 47°36' W 003°35'3 3.2
2016-Feb-03 13:33N 47°34' W 003°32'4 3.5
2016-Feb-03 12:33N 47°31' W 003°30'3 2.8
2016-Feb-03 11:33N 47°28' W 003°29'2 2.2
2016-Feb-03 10:33N 47°29' W 003°32'3 3.4
2016-Feb-03 09:33N 47°26' W 003°30'3 2.8
2016-Feb-03 08:33N 47°23' W 003°30'2 1.7
2016-Feb-03 07:33N 47°24' W 003°28'4 4.3
2016-Feb-03 06:33N 47°27' W 003°32'4 4.2
2016-Feb-03 05:33N 47°31' W 003°32'4 4.4
2016-Feb-03 04:33N 47°35' W 003°28'8 8.0
2016-Feb-03 03:33N 47°42' W 003°22'2 2.2
2016-Feb-03 02:33N 47°44' W 003°22'6 6.5
2016-Feb-03 01:33N 47°37' W 003°22'8 8.2
2016-Feb-03 00:33N 47°29' W 003°23'8 8.3
2016-Feb-02 23:33N 47°21' W 003°24'9 8.5
2016-Feb-02 22:33N 47°12' W 003°25'11 0.6
2016-Feb-02 05:29N 47°13' W 003°40'3 3.7
2016-Feb-02 04:33N 47°16' W 003°40'4 3.5
2016-Feb-02 03:33N 47°19' W 003°37'5 4.7
2016-Feb-02 02:33N 47°21' W 003°30'7 7.4
2016-Feb-02 01:33N 47°25' W 003°21'3 3.1
2016-Feb-02 00:33N 47°22' W 003°19'2 1.9
2016-Feb-01 23:33N 47°23' W 003°20'1 1.0
2016-Feb-01 22:33N 47°23' W 003°19'2 2.0
2016-Feb-01 21:33N 47°23' W 003°22'2 2.5
2016-Feb-01 20:33N 47°21' W 003°19'1 1.2
2016-Feb-01 19:33N 47°22' W 003°20'1 1.3
2016-Feb-01 18:33N 47°23' W 003°21'3 2.8
2016-Feb-01 17:33N 47°25' W 003°25'2 2.4
2016-Feb-01 16:33N 47°23' W 003°28'1 1.5
2016-Feb-01 15:33N 47°23' W 003°30'2 2.1
2016-Feb-01 14:33N 47°24' W 003°27'3 3.0
2016-Feb-01 13:33N 47°24' W 003°23'0 0.2
2016-Feb-01 12:33N 47°25' W 003°22'3 3.2
2016-Feb-01 11:33N 47°24' W 003°18'2 1.5
2016-Feb-01 10:33N 47°25' W 003°20'5 4.8
2016-Feb-01 09:33N 47°30' W 003°23'8 8.4
2016-Feb-01 08:33N 47°38' W 003°22'6 5.7
2016-Feb-01 07:33N 47°44' W 003°22'0 0.0
2016-Feb-01 06:33N 47°44' W 003°22'3 2.8
2016-Feb-01 05:33N 47°41' W 003°22'9 8.7
2016-Feb-01 04:33N 47°32' W 003°23'9 8.6
2016-Feb-01 03:33N 47°24' W 003°21'4 3.5
2016-Feb-01 02:33N 47°20' W 003°19'3 3.3
2016-Feb-01 01:33N 47°24' W 003°20'1 0.7
2016-Feb-01 00:33N 47°23' W 003°20'1 0.8
2016-Jan-31 23:33N 47°22' W 003°19'2 2.2
2016-Jan-31 22:33N 47°24' W 003°21'2 2.1
2016-Jan-31 21:34N 47°22' W 003°20'1 1.4
2016-Jan-31 20:33N 47°24' W 003°21'1 1.2
2016-Jan-31 19:33N 47°22' W 003°21'4 3.8
2016-Jan-31 18:33N 47°26' W 003°23'8 8.1
2016-Jan-31 17:33N 47°34' W 003°22'8 8.5
2016-Jan-31 16:33N 47°42' W 003°22'1 0.0
2016-Jan-30 03:33N 47°44' W 003°22'0 0.0
2016-Jan-30 02:33N 47°44' W 003°22'0 0.1
2016-Jan-30 01:33N 47°44' W 003°22'0 0.0
2016-Jan-30 00:33N 47°44' W 003°22'0 0.1
2016-Jan-29 23:33N 47°44' W 003°22'0 0.1
2016-Jan-29 22:33N 47°44' W 003°22'6 6.1
2016-Jan-29 21:34N 47°38' W 003°22'8 7.8
2016-Jan-29 20:34N 47°30' W 003°23'7 6.9
2016-Jan-29 19:33N 47°23' W 003°24'1 1.4
2016-Jan-29 18:33N 47°24' W 003°22'3 2.8
2016-Jan-29 17:33N 47°25' W 003°26'2 1.9
2016-Jan-29 16:33N 47°23' W 003°28'1 1.4
2016-Jan-29 15:33N 47°23' W 003°30'4 3.8
2016-Jan-29 14:34N 47°20' W 003°26'3 3.4
2016-Jan-29 13:34N 47°17' W 003°27'3 2.7
2016-Jan-29 12:33N 47°18' W 003°31'0 0.1
2016-Jan-29 11:33N 47°17' W 003°31'2 1.6
2016-Jan-29 10:33N 47°17' W 003°29'1 0.5
2016-Jan-29 09:33N 47°17' W 003°29'0 0.5
2016-Jan-29 08:33N 47°17' W 003°29'1 1.5
2016-Jan-29 07:34N 47°18' W 003°31'2 2.2
2016-Jan-29 06:33N 47°16' W 003°28'4 4.2
2016-Jan-29 05:33N 47°20' W 003°27'8 8.1
2016-Jan-29 04:33N 47°28' W 003°24'8 8.1
2016-Jan-29 03:33N 47°36' W 003°23'8 7.7
2016-Jan-29 02:33N 47°44' W 003°22'4 3.6
2016-Jan-29 01:33N 47°40' W 003°22'9 8.9
2016-Jan-29 00:33N 47°31' W 003°23'6 6.0
2016-Jan-28 23:33N 47°25' W 003°23'3 3.5
2016-Jan-28 22:33N 47°22' W 003°21'4 3.7
2016-Jan-28 21:33N 47°19' W 003°19'2 1.9
2016-Jan-28 20:33N 47°21' W 003°18'2 1.6
2016-Jan-28 19:33N 47°22' W 003°19'7 6.6
2016-Jan-28 18:33N 47°19' W 003°27'3 3.3
2016-Jan-28 17:33N 47°17' W 003°31'2 2.2
2016-Jan-28 16:34N 47°17' W 003°28'2 2.0
2016-Jan-28 15:34N 47°18' W 003°30'0 0.2
2016-Jan-28 14:33N 47°18' W 003°30'1 1.0
2016-Jan-28 13:33N 47°18' W 003°28'1 0.7
2016-Jan-28 12:34N 47°18' W 003°29'2 1.7
2016-Jan-28 11:33N 47°16' W 003°29'4 4.3
2016-Jan-28 10:33N 47°20' W 003°27'3 3.4
2016-Jan-28 09:34N 47°23' W 003°27'2 2.4
2016-Jan-28 08:33N 47°21' W 003°28'3 3.0
2016-Jan-28 07:34N 47°24' W 003°30'4 3.9
2016-Jan-28 06:34N 47°25' W 003°25'3 2.8
2016-Jan-28 05:34N 47°27' W 003°22'2 1.8
2016-Jan-28 04:34N 47°25' W 003°21'2 1.7
2016-Jan-28 03:34N 47°27' W 003°22'5 4.9
2016-Jan-28 02:33N 47°32' W 003°22'8 8.1
2016-Jan-28 01:33N 47°40' W 003°22'  

Dump ship's entire track history